Time;durP1;ratioP1;P1;durP2;ratioP2;P2;SDS_P1;SDS_P2;PMS_P1;PMS_P2;Temp;Humidity;BMP_temperature;BMP_pressure;BME280_temperature;BME280_humidity;BME280_pressure;Samples;Min_cycle;Max_cycle;Signal;HPM_P1;HPM_P2
2022/04/01 00:02:12;;;;;;;30.33;24.05;;;;;;;;;;4975095;28;20658;-78
2022/04/01 00:04:40;;;;;;;26.65;20.55;;;;;;;;;;4973831;28;20205;-82
2022/04/01 00:07:08;;;;;;;32.50;22.52;;;;;;;;;;4986911;28;20555;-79
2022/04/01 00:09:37;;;;;;;32.85;21.77;;;;;;;;;;4985719;28;20312;-80
2022/04/01 00:12:04;;;;;;;28.23;19.90;;;;;;;;;;4990921;28;20197;-80
2022/04/01 00:14:32;;;;;;;28.63;20.42;;;;;;;;;;4995175;28;20196;-81
2022/04/01 00:17:00;;;;;;;31.05;22.52;;;;;;;;;;4989831;28;20224;-81
2022/04/01 00:19:27;;;;;;;26.92;21.33;;;;;;;;;;4990183;28;20324;-78
2022/04/01 00:21:56;;;;;;;27.20;20.70;;;;;;;;;;4985021;28;20197;-78
2022/04/01 00:24:24;;;;;;;33.20;21.80;;;;;;;;;;4973387;28;20212;-78
2022/04/01 00:26:51;;;;;;;30.38;21.42;;;;;;;;;;4973492;28;20260;-78
2022/04/01 00:29:20;;;;;;;28.85;21.92;;;;;;;;;;4974323;28;20221;-81
2022/04/01 00:31:49;;;;;;;28.83;21.42;;;;;;;;;;4977989;28;20239;-80
2022/04/01 00:34:16;;;;;;;28.25;20.50;;;;;;;;;;4985996;28;20197;-80
2022/04/01 00:36:43;;;;;;;28.35;20.38;;;;;;;;;;4975093;28;20719;-82
2022/04/01 00:39:12;;;;;;;28.15;22.08;;;;;;;;;;4986509;28;20217;-80
2022/04/01 00:41:39;;;;;;;32.70;22.60;;;;;;;;;;4989972;28;20201;-80
2022/04/01 00:44:15;;;;;;;29.90;22.27;;;;;;;;;;4991729;28;20592;-79
2022/04/01 00:46:43;;;;;;;27.45;20.20;;;;;;;;;;4991087;28;20692;-81
2022/04/01 00:49:10;;;;;;;28.85;20.60;;;;;;;;;;4991683;28;20221;-79
2022/04/01 00:51:38;;;;;;;29.02;20.65;;;;;;;;;;4992419;28;20200;-80
2022/04/01 00:54:06;;;;;;;32.22;22.65;;;;;;;;;;4985251;28;20194;-81
2022/04/01 00:56:35;;;;;;;36.67;24.48;;;;;;;;;;4975426;28;20248;-80
2022/04/01 00:59:03;;;;;;;32.53;23.63;;;;;;;;;;4974622;28;20214;-79
2022/04/01 01:01:31;;;;;;;33.50;23.42;;;;;;;;;;4984853;28;20341;-80
2022/04/01 01:03:59;;;;;;;31.02;24.17;;;;;;;;;;4989073;28;20220;-82
2022/04/01 01:06:26;;;;;;;32.47;23.45;;;;;;;;;;4987153;28;20193;-81
2022/04/01 01:08:54;;;;;;;32.83;22.50;;;;;;;;;;4988786;28;20601;-80
2022/04/01 01:11:21;;;;;;;33.33;23.48;;;;;;;;;;4988184;28;20252;-80
2022/04/01 01:13:50;;;;;;;30.85;23.73;;;;;;;;;;4973036;28;20208;-81
2022/04/01 01:16:17;;;;;;;35.75;23.50;;;;;;;;;;4989196;28;20225;-79
2022/04/01 01:18:45;;;;;;;35.50;24.33;;;;;;;;;;4986816;28;20607;-80
2022/04/01 01:21:12;;;;;;;30.05;23.60;;;;;;;;;;4977134;28;20197;-80
2022/04/01 01:23:41;;;;;;;33.30;22.90;;;;;;;;;;4990427;28;20196;-80
2022/04/01 01:26:10;;;;;;;34.10;25.35;;;;;;;;;;4987579;28;20622;-80
2022/04/01 01:28:37;;;;;;;29.58;23.73;;;;;;;;;;4983774;28;20428;-81
2022/04/01 01:31:05;;;;;;;29.02;22.67;;;;;;;;;;4973121;28;20205;-81
2022/04/01 01:33:33;;;;;;;25.90;21.73;;;;;;;;;;4982987;28;20231;-80
2022/04/01 01:36:00;;;;;;;22.48;19.15;;;;;;;;;;4972172;28;20619;-81
2022/04/01 01:38:27;;;;;;;22.05;19.55;;;;;;;;;;4983812;28;20235;-79
2022/04/01 01:40:54;;;;;;;23.73;18.92;;;;;;;;;;4973720;28;20584;-81
2022/04/01 01:43:24;;;;;;;21.42;18.98;;;;;;;;;;4973727;28;20201;-80
2022/04/01 01:45:51;;;;;;;20.90;18.40;;;;;;;;;;4980396;28;20223;-81
2022/04/01 01:48:21;;;;;;;20.70;18.48;;;;;;;;;;4988575;28;20315;-80
2022/04/01 01:56:11;;;;;;;20.92;18.55;;;;;;;;;;4990209;28;20223;-81
2022/04/01 01:58:39;;;;;;;22.10;18.98;;;;;;;;;;4991629;28;20217;-81
2022/04/01 02:01:06;;;;;;;22.10;19.13;;;;;;;;;;4990730;28;20200;-79
2022/04/01 02:03:33;;;;;;;25.90;20.83;;;;;;;;;;4993142;28;20625;-80
2022/04/01 02:06:02;;;;;;;25.20;21.25;;;;;;;;;;4992709;28;20196;-81
2022/04/01 02:08:30;;;;;;;25.00;21.63;;;;;;;;;;4990243;28;20224;-80
2022/04/01 02:10:57;;;;;;;25.30;20.98;;;;;;;;;;4988025;28;20566;-80
2022/04/01 02:13:26;;;;;;;23.98;20.85;;;;;;;;;;4989340;28;20200;-80
2022/04/01 02:15:54;;;;;;;25.13;21.88;;;;;;;;;;4990685;28;20274;-79
2022/04/01 02:18:22;;;;;;;23.17;19.98;;;;;;;;;;4975933;28;20243;-79
2022/04/01 02:20:50;;;;;;;23.45;20.10;;;;;;;;;;4971810;28;20229;-79
2022/04/01 02:23:17;;;;;;;25.00;21.08;;;;;;;;;;4989946;28;20294;-81
2022/04/01 02:25:45;;;;;;;22.60;20.17;;;;;;;;;;4973305;28;20594;-80
2022/04/01 02:28:12;;;;;;;24.08;21.13;;;;;;;;;;4988973;28;20220;-81
2022/04/01 02:30:40;;;;;;;25.55;21.85;;;;;;;;;;4980608;28;20263;-79
2022/04/01 02:33:09;;;;;;;26.55;20.55;;;;;;;;;;4990835;28;20192;-80
2022/04/01 02:35:36;;;;;;;25.55;21.48;;;;;;;;;;4993654;28;20613;-79
2022/04/01 02:38:03;;;;;;;23.00;20.60;;;;;;;;;;4993521;28;20547;-81
2022/04/01 02:40:32;;;;;;;24.42;21.77;;;;;;;;;;4987344;28;20193;-81
2022/04/01 02:43:00;;;;;;;22.15;19.85;;;;;;;;;;4993148;28;20200;-80
2022/04/01 02:45:27;;;;;;;25.58;20.30;;;;;;;;;;4993538;28;20192;-79
2022/04/01 02:47:54;;;;;;;22.90;20.02;;;;;;;;;;4995602;28;20232;-81
2022/04/01 02:50:23;;;;;;;22.20;19.80;;;;;;;;;;4985617;28;20536;-79
2022/04/01 02:52:50;;;;;;;21.65;18.58;;;;;;;;;;4982752;28;20591;-80
2022/04/01 02:55:18;;;;;;;25.52;22.05;;;;;;;;;;4993960;28;20204;-80
2022/04/01 02:57:46;;;;;;;23.05;20.20;;;;;;;;;;4994536;28;20240;-81
2022/04/01 03:00:21;;;;;;;23.75;21.02;;;;;;;;;;4994220;28;20370;-80
2022/04/01 03:02:48;;;;;;;22.10;19.63;;;;;;;;;;4993786;28;20292;-81
2022/04/01 03:05:17;;;;;;;21.95;19.02;;;;;;;;;;4977137;28;20221;-80
2022/04/01 03:07:45;;;;;;;21.40;19.10;;;;;;;;;;4991652;28;20312;-80
2022/04/01 03:10:13;;;;;;;23.35;19.52;;;;;;;;;;4982661;28;20554;-79
2022/04/01 03:12:40;;;;;;;23.17;20.67;;;;;;;;;;4976653;28;20223;-80
2022/04/01 03:15:08;;;;;;;23.67;19.90;;;;;;;;;;4979852;28;20200;-80
2022/04/01 03:17:36;;;;;;;23.42;19.63;;;;;;;;;;4991546;28;20220;-80
2022/04/01 03:20:03;;;;;;;22.30;18.48;;;;;;;;;;4992242;28;20594;-79
2022/04/01 03:22:30;;;;;;;21.30;19.13;;;;;;;;;;4981742;28;20288;-81
2022/04/01 03:24:59;;;;;;;25.70;20.83;;;;;;;;;;4990002;28;20228;-81
2022/04/01 03:27:26;;;;;;;21.85;18.73;;;;;;;;;;4994209;28;20193;-80
2022/04/01 03:29:53;;;;;;;22.27;19.73;;;;;;;;;;4994406;28;20201;-81
2022/04/01 03:32:21;;;;;;;23.23;20.75;;;;;;;;;;4981414;28;20245;-80
2022/04/01 03:34:48;;;;;;;23.23;19.65;;;;;;;;;;4976073;28;20231;-78
2022/04/01 03:37:16;;;;;;;23.50;19.95;;;;;;;;;;4978883;28;20709;-80
2022/04/01 03:39:43;;;;;;;21.38;19.08;;;;;;;;;;4990796;28;20201;-81
2022/04/01 03:42:12;;;;;;;21.48;18.52;;;;;;;;;;4990541;28;20197;-82
2022/04/01 03:44:41;;;;;;;20.27;18.20;;;;;;;;;;4993630;28;20208;-81
2022/04/01 03:47:11;;;;;;;18.42;16.10;;;;;;;;;;4991490;28;20542;-80
2022/04/01 03:49:45;;;;;;;21.60;18.05;;;;;;;;;;4974205;28;20224;-80
2022/04/01 03:52:13;;;;;;;21.70;17.35;;;;;;;;;;4974873;28;20207;-81
2022/04/01 03:54:43;;;;;;;18.95;16.38;;;;;;;;;;4975083;28;20216;-80
2022/04/01 03:57:12;;;;;;;17.98;16.08;;;;;;;;;;4993029;28;20219;-80
2022/04/01 03:59:41;;;;;;;20.15;15.88;;;;;;;;;;4994318;28;20221;-79
2022/04/01 04:02:10;;;;;;;20.70;17.08;;;;;;;;;;4988823;28;20866;-79
2022/04/01 04:04:38;;;;;;;18.60;16.75;;;;;;;;;;4991138;28;20220;-78
2022/04/01 04:07:07;;;;;;;22.65;18.63;;;;;;;;;;4989591;28;20202;-78
2022/04/01 04:09:35;;;;;;;21.42;19.08;;;;;;;;;;4982003;28;20472;-78
2022/04/01 04:12:03;;;;;;;22.50;19.10;;;;;;;;;;4995481;28;20208;-76
2022/04/01 04:14:32;;;;;;;21.10;18.05;;;;;;;;;;4977317;28;20204;-80
2022/04/01 04:17:01;;;;;;;21.63;18.55;;;;;;;;;;4988410;28;20221;-78
2022/04/01 04:19:30;;;;;;;24.05;21.20;;;;;;;;;;4994245;28;20235;-78
2022/04/01 04:22:00;;;;;;;26.55;21.63;;;;;;;;;;4981166;28;20542;-79
2022/04/01 04:24:30;;;;;;;25.38;20.73;;;;;;;;;;4990218;28;20544;-77
2022/04/01 04:27:01;;;;;;;22.95;19.98;;;;;;;;;;4990550;28;20189;-78
2022/04/01 04:29:30;;;;;;;23.33;20.20;;;;;;;;;;4973959;28;20542;-79
2022/04/01 04:32:02;;;;;;;23.73;19.77;;;;;;;;;;4985650;28;20601;-78
2022/04/01 04:34:32;;;;;;;24.60;19.90;;;;;;;;;;4992602;28;20207;-79
2022/04/01 04:37:00;;;;;;;21.52;19.33;;;;;;;;;;4979387;28;20236;-79
2022/04/01 04:39:31;;;;;;;22.00;17.77;;;;;;;;;;4978257;28;20227;-79
2022/04/01 04:41:58;;;;;;;20.45;17.90;;;;;;;;;;4994592;28;20568;-78
2022/04/01 04:44:29;;;;;;;21.83;17.67;;;;;;;;;;4985442;28;20543;-77
2022/04/01 04:46:57;;;;;;;20.67;18.48;;;;;;;;;;4988542;28;20642;-80
2022/04/01 04:49:27;;;;;;;20.30;18.15;;;;;;;;;;4989224;28;20216;-78
2022/04/01 04:51:56;;;;;;;20.42;18.27;;;;;;;;;;4990650;28;20620;-80
2022/04/01 04:54:24;;;;;;;19.52;17.40;;;;;;;;;;4991377;28;20201;-80
2022/04/01 04:56:51;;;;;;;19.63;17.23;;;;;;;;;;4980538;28;20213;-79
2022/04/01 04:59:19;;;;;;;19.15;17.15;;;;;;;;;;4971744;28;20248;-80
2022/04/01 05:01:50;;;;;;;23.50;16.67;;;;;;;;;;4979881;28;20201;-79
2022/04/01 05:04:28;;;;;;;20.10;17.83;;;;;;;;;;4988433;28;20193;-80
2022/04/01 05:07:00;;;;;;;19.10;17.10;;;;;;;;;;4990641;28;20208;-81
2022/04/01 05:09:32;;;;;;;21.38;17.30;;;;;;;;;;4991769;28;20221;-80
2022/04/01 05:12:05;;;;;;;21.20;16.52;;;;;;;;;;4982648;28;20574;-80
2022/04/01 05:14:38;;;;;;;18.88;16.85;;;;;;;;;;4985670;28;20607;-80
2022/04/01 05:17:13;;;;;;;18.50;16.45;;;;;;;;;;4989730;28;20312;-78
2022/04/01 05:19:42;;;;;;;17.98;16.13;;;;;;;;;;4982016;28;20705;-78
2022/04/01 05:22:11;;;;;;;19.33;16.35;;;;;;;;;;4993495;28;20207;-79
2022/04/01 05:24:40;;;;;;;17.65;15.75;;;;;;;;;;4990631;28;20193;-80
2022/04/01 05:27:13;;;;;;;17.48;15.18;;;;;;;;;;4989084;28;20662;-80
2022/04/01 05:29:43;;;;;;;18.67;15.38;;;;;;;;;;4991097;28;20538;-79
2022/04/01 05:32:11;;;;;;;19.35;15.98;;;;;;;;;;4991578;28;20247;-80
2022/04/01 05:34:40;;;;;;;19.63;16.05;;;;;;;;;;4991831;28;20862;-79
2022/04/01 05:37:08;;;;;;;21.83;15.77;;;;;;;;;;4977496;28;20247;-81
2022/04/01 05:39:37;;;;;;;17.35;15.50;;;;;;;;;;4972069;28;20221;-81
2022/04/01 05:42:06;;;;;;;23.85;14.88;;;;;;;;;;4973828;28;20208;-80
2022/04/01 05:44:35;;;;;;;18.33;15.73;;;;;;;;;;4973967;28;20205;-80
2022/04/01 05:47:02;;;;;;;18.08;15.60;;;;;;;;;;4984615;28;20193;-81
2022/04/01 05:49:30;;;;;;;19.13;16.02;;;;;;;;;;4988857;28;20682;-81
2022/04/01 05:51:58;;;;;;;16.25;14.50;;;;;;;;;;4989350;28;20287;-78
2022/04/01 05:54:26;;;;;;;16.60;14.80;;;;;;;;;;4990970;28;20204;-79
2022/04/01 05:56:55;;;;;;;19.02;15.18;;;;;;;;;;4991517;28;20211;-82
2022/04/01 05:59:24;;;;;;;16.65;14.95;;;;;;;;;;4991720;28;20749;-80
2022/04/01 06:01:57;;;;;;;16.80;15.00;;;;;;;;;;4989993;28;20235;-80
2022/04/01 06:04:34;;;;;;;17.48;15.15;;;;;;;;;;4992950;28;20579;-80
2022/04/01 06:07:09;;;;;;;18.10;16.17;;;;;;;;;;4992887;28;20653;-79
2022/04/01 06:09:37;;;;;;;19.17;15.73;;;;;;;;;;4989276;28;20216;-79
2022/04/01 06:12:11;;;;;;;15.30;13.23;;;;;;;;;;4987986;28;20231;-82
2022/04/01 06:14:46;;;;;;;15.45;13.95;;;;;;;;;;4970412;28;20201;-81
2022/04/01 06:17:18;;;;;;;14.35;12.95;;;;;;;;;;4970043;28;20710;-80
2022/04/01 06:19:46;;;;;;;15.65;14.05;;;;;;;;;;4971629;28;20225;-79
2022/04/01 06:22:15;;;;;;;14.82;13.20;;;;;;;;;;4971936;28;20202;-81
2022/04/01 06:24:46;;;;;;;15.80;14.20;;;;;;;;;;4979617;28;20201;-80
2022/04/01 06:27:20;;;;;;;15.35;13.75;;;;;;;;;;4992820;28;20650;-84
2022/04/01 06:29:53;;;;;;;15.38;13.27;;;;;;;;;;4991514;28;20200;-80
2022/04/01 06:32:27;;;;;;;15.10;13.50;;;;;;;;;;4988372;28;20208;-81
2022/04/01 06:35:04;;;;;;;15.43;13.88;;;;;;;;;;4989141;28;20274;-82
2022/04/01 06:37:34;;;;;;;14.48;13.02;;;;;;;;;;4990528;28;20562;-83
2022/04/01 06:40:04;;;;;;;14.57;13.07;;;;;;;;;;4990522;28;20581;-80
2022/04/01 06:42:34;;;;;;;16.45;14.68;;;;;;;;;;4989606;28;20633;-80
2022/04/01 06:45:04;;;;;;;14.95;13.45;;;;;;;;;;4992831;28;20227;-79
2022/04/01 06:47:32;;;;;;;15.30;13.13;;;;;;;;;;4980612;28;20210;-82
2022/04/01 06:49:59;;;;;;;14.48;13.07;;;;;;;;;;4974604;28;20205;-78
2022/04/01 06:52:27;;;;;;;15.13;13.52;;;;;;;;;;4973549;28;20210;-79
2022/04/01 06:54:54;;;;;;;15.95;13.95;;;;;;;;;;4988299;28;20207;-81
2022/04/01 06:57:21;;;;;;;14.10;12.60;;;;;;;;;;4988887;28;20553;-81
2022/04/01 06:59:50;;;;;;;17.13;13.70;;;;;;;;;;4990252;28;20204;-79
2022/04/01 07:02:17;;;;;;;15.07;13.57;;;;;;;;;;4989192;28;20215;-80
2022/04/01 07:04:44;;;;;;;14.85;13.43;;;;;;;;;;4990758;28;20247;-82
2022/04/01 07:07:12;;;;;;;15.20;13.68;;;;;;;;;;4990818;28;20239;-79
2022/04/01 07:09:40;;;;;;;14.45;12.95;;;;;;;;;;4981849;28;20198;-83
2022/04/01 07:12:07;;;;;;;17.00;15.15;;;;;;;;;;4971683;28;20677;-80
2022/04/01 07:14:35;;;;;;;15.00;13.40;;;;;;;;;;4973199;28;20221;-82
2022/04/01 07:17:03;;;;;;;14.90;13.27;;;;;;;;;;4987677;28;20673;-80
2022/04/01 07:19:31;;;;;;;16.35;13.30;;;;;;;;;;4991610;28;20239;-79
2022/04/01 07:21:58;;;;;;;13.30;11.90;;;;;;;;;;4993291;28;20208;-82
2022/04/01 07:24:26;;;;;;;13.80;12.23;;;;;;;;;;4993953;28;20204;-82
2022/04/01 07:26:53;;;;;;;12.90;11.50;;;;;;;;;;4994131;28;20255;-82
2022/04/01 07:29:21;;;;;;;13.68;12.30;;;;;;;;;;4994332;28;20224;-80
2022/04/01 07:34:32;;;;;;;13.55;12.15;;;;;;;;;;4995725;28;20201;-79
2022/04/01 07:36:59;;;;;;;12.45;11.00;;;;;;;;;;4995993;28;20208;-79
2022/04/01 07:39:26;;;;;;;12.27;10.98;;;;;;;;;;4991694;28;20232;-81
2022/04/01 07:41:53;;;;;;;11.50;10.30;;;;;;;;;;4991509;28;21106;-82
2022/04/01 07:44:20;;;;;;;12.50;11.10;;;;;;;;;;4993376;28;20242;-83
2022/04/01 07:46:48;;;;;;;11.07;9.98;;;;;;;;;;4993580;28;20196;-84
2022/04/01 07:49:15;;;;;;;10.15;9.15;;;;;;;;;;4993892;28;20220;-85
2022/04/01 07:51:44;;;;;;;12.50;11.30;;;;;;;;;;4994325;28;20209;-81
2022/04/01 07:54:11;;;;;;;11.20;10.10;;;;;;;;;;4987461;28;20194;-83
2022/04/01 07:56:40;;;;;;;10.63;9.52;;;;;;;;;;4976089;28;20275;-85
2022/04/01 07:59:08;;;;;;;11.52;10.43;;;;;;;;;;4975715;28;20315;-78
2022/04/01 08:01:35;;;;;;;8.85;7.95;;;;;;;;;;4987825;28;20197;-84
2022/04/01 08:04:02;;;;;;;10.18;9.27;;;;;;;;;;4991472;28;20203;-85
2022/04/01 08:06:32;;;;;;;10.73;9.73;;;;;;;;;;4992761;28;20666;-86
2022/04/01 08:09:01;;;;;;;9.70;8.70;;;;;;;;;;4992568;28;20713;-86
2022/04/01 08:11:28;;;;;;;8.95;8.05;;;;;;;;;;4993091;28;20200;-84
2022/04/01 08:13:55;;;;;;;8.68;7.88;;;;;;;;;;4992315;28;20236;-85
2022/04/01 08:16:23;;;;;;;8.75;7.88;;;;;;;;;;4988228;28;20197;-87
2022/04/01 08:18:51;;;;;;;8.55;7.65;;;;;;;;;;4974957;28;20226;-86
2022/04/01 08:21:19;;;;;;;7.85;6.93;;;;;;;;;;4974384;28;20264;-85
2022/04/01 08:23:49;;;;;;;8.65;7.85;;;;;;;;;;4987712;28;20254;-86
2022/04/01 08:26:18;;;;;;;8.57;7.78;;;;;;;;;;4992078;28;20215;-85
2022/04/01 08:28:46;;;;;;;7.90;7.10;;;;;;;;;;4991392;28;20299;-86
2022/04/01 08:31:16;;;;;;;7.47;6.78;;;;;;;;;;4992647;28;20647;-87
2022/04/01 08:33:47;;;;;;;7.47;6.88;;;;;;;;;;4993024;28;20295;-86
2022/04/01 08:36:16;;;;;;;7.50;6.80;;;;;;;;;;4992265;28;20215;-87
2022/04/01 08:38:44;;;;;;;6.85;6.22;;;;;;;;;;4992340;28;20682;-86
2022/04/01 08:41:11;;;;;;;7.30;6.63;;;;;;;;;;4993442;28;20200;-86
2022/04/01 08:43:42;;;;;;;6.63;6.03;;;;;;;;;;4995059;28;20193;-85
2022/04/01 08:46:10;;;;;;;8.05;5.53;;;;;;;;;;4991453;28;20197;-87
2022/04/01 08:48:43;;;;;;;6.53;5.93;;;;;;;;;;4990161;28;20215;-86
2022/04/01 08:51:10;;;;;;;6.15;5.55;;;;;;;;;;4991905;28;20201;-87
2022/04/01 08:53:39;;;;;;;6.50;5.90;;;;;;;;;;4992103;28;20209;-87
2022/04/01 08:56:07;;;;;;;6.78;5.85;;;;;;;;;;4993094;28;20219;-85
2022/04/01 08:58:44;;;;;;;9.32;5.70;;;;;;;;;;4993933;28;20232;-85
2022/04/01 09:01:14;;;;;;;5.30;4.90;;;;;;;;;;4993227;28;20201;-84
2022/04/01 09:03:42;;;;;;;7.55;6.43;;;;;;;;;;4995302;28;20236;-86
2022/04/01 09:09:00;;;;;;;7.38;5.20;;;;;;;;;;4982079;28;20243;-87
2022/04/01 09:11:28;;;;;;;6.43;5.85;;;;;;;;;;4990721;28;20192;-88
2022/04/01 09:13:55;;;;;;;6.40;5.80;;;;;;;;;;4991917;28;20215;-85
2022/04/01 09:16:27;;;;;;;7.32;6.53;;;;;;;;;;4991500;28;20204;-88
2022/04/01 09:18:57;;;;;;;8.48;7.03;;;;;;;;;;4990550;28;20232;-87
2022/04/01 09:21:28;;;;;;;6.18;5.28;;;;;;;;;;4992270;28;20200;-86
2022/04/01 09:23:55;;;;;;;6.63;5.97;;;;;;;;;;4991635;28;20209;-86
2022/04/01 09:26:22;;;;;;;6.90;6.20;;;;;;;;;;4993890;28;20207;-87
2022/04/01 09:28:53;;;;;;;6.03;5.35;;;;;;;;;;4993988;28;20220;-86
2022/04/01 09:31:24;;;;;;;7.45;6.70;;;;;;;;;;4989759;28;20220;-85
2022/04/01 09:33:53;;;;;;;7.28;6.55;;;;;;;;;;4989698;28;20205;-86
2022/04/01 09:36:21;;;;;;;6.32;5.75;;;;;;;;;;4991076;28;20566;-86
2022/04/01 09:39:00;;;;;;;7.15;6.47;;;;;;;;;;4989898;28;20220;-84
2022/04/01 09:41:31;;;;;;;6.88;6.28;;;;;;;;;;4991208;28;20200;-86
2022/04/01 09:44:18;;;;;;;6.00;5.35;;;;;;;;;;4992112;28;20299;-85
2022/04/01 09:46:47;;;;;;;6.35;5.75;;;;;;;;;;4978919;28;20296;-81
2022/04/01 09:49:16;;;;;;;7.18;6.43;;;;;;;;;;4979716;28;20205;-85
2022/04/01 09:51:45;;;;;;;7.65;6.25;;;;;;;;;;4987647;28;20295;-86
2022/04/01 09:54:18;;;;;;;6.97;6.22;;;;;;;;;;4989603;28;20200;-87
2022/04/01 09:56:49;;;;;;;6.47;5.88;;;;;;;;;;4991169;28;20200;-86
2022/04/01 09:59:17;;;;;;;7.70;5.80;;;;;;;;;;4991037;28;20228;-84
2022/04/01 10:01:45;;;;;;;6.72;6.03;;;;;;;;;;4991229;28;20243;-85
2022/04/01 10:04:14;;;;;;;6.32;5.72;;;;;;;;;;4991765;28;20205;-86
2022/04/01 10:06:43;;;;;;;6.18;5.60;;;;;;;;;;4973802;28;20207;-85
2022/04/01 10:09:11;;;;;;;6.40;5.47;;;;;;;;;;4972357;28;20221;-85
2022/04/01 10:11:40;;;;;;;6.32;5.63;;;;;;;;;;4979507;28;20255;-87
2022/04/01 10:14:16;;;;;;;6.03;5.43;;;;;;;;;;4988468;28;20551;-86
2022/04/01 10:16:44;;;;;;;5.80;5.30;;;;;;;;;;4989518;28;20644;-86
2022/04/01 10:19:13;;;;;;;5.90;5.40;;;;;;;;;;4990424;28;20294;-82
2022/04/01 10:21:44;;;;;;;6.82;5.65;;;;;;;;;;4990996;28;20205;-81
2022/04/01 10:24:17;;;;;;;5.90;5.40;;;;;;;;;;4991223;28;20263;-83
2022/04/01 10:26:50;;;;;;;5.78;5.28;;;;;;;;;;4989793;28;20232;-83
2022/04/01 10:29:18;;;;;;;5.72;5.15;;;;;;;;;;4975010;28;20216;-82
2022/04/01 10:31:54;;;;;;;6.25;5.13;;;;;;;;;;4988257;28;20228;-81
2022/04/01 10:34:22;;;;;;;5.90;5.00;;;;;;;;;;4987969;28;20208;-83
2022/04/01 10:37:00;;;;;;;5.78;5.18;;;;;;;;;;4991188;28;20223;-77
2022/04/01 10:39:28;;;;;;;7.35;5.43;;;;;;;;;;4989526;28;20232;-81
2022/04/01 10:42:11;;;;;;;5.82;5.30;;;;;;;;;;4990767;28;20702;-81
2022/04/01 10:44:47;;;;;;;4.82;4.05;;;;;;;;;;4989938;28;20283;-83
2022/04/01 10:47:14;;;;;;;4.65;4.25;;;;;;;;;;4992577;28;20204;-87
2022/04/01 10:52:24;;;;;;;6.38;5.05;;;;;;;;;;4999565;28;20199;-85
2022/04/01 10:54:51;;;;;;;6.35;5.20;;;;;;;;;;4999520;28;20286;-84
2022/04/01 11:03:31;;;;;;;7.85;4.70;;;;;;;;;;4991489;28;20204;-84
2022/04/01 11:06:13;;;;;;;5.28;4.75;;;;;;;;;;4994547;28;20196;-84
2022/04/01 11:08:54;;;;;;;5.22;4.78;;;;;;;;;;4984603;28;20227;-85
2022/04/01 11:11:22;;;;;;;4.90;4.22;;;;;;;;;;4976906;28;20252;-85
2022/04/01 11:14:03;;;;;;;4.50;4.10;;;;;;;;;;4976886;28;20201;-85
2022/04/01 11:16:51;;;;;;;5.75;4.88;;;;;;;;;;4991812;28;20201;-83
2022/04/01 11:19:19;;;;;;;4.80;4.40;;;;;;;;;;4986957;28;20236;-86
2022/04/01 11:21:47;;;;;;;4.88;4.38;;;;;;;;;;4977272;28;20689;-84
2022/04/01 11:24:24;;;;;;;4.40;4.00;;;;;;;;;;4994354;28;20197;-85
2022/04/01 11:26:51;;;;;;;4.53;4.13;;;;;;;;;;4993641;28;20222;-85
2022/04/01 11:29:21;;;;;;;5.72;5.22;;;;;;;;;;4975430;28;20578;-86
2022/04/01 11:31:48;;;;;;;4.70;4.20;;;;;;;;;;4989956;28;20209;-83
2022/04/01 11:34:15;;;;;;;5.10;4.70;;;;;;;;;;4990041;28;20281;-86
2022/04/01 11:36:43;;;;;;;5.50;4.85;;;;;;;;;;4993791;28;20197;-83
2022/04/01 11:39:16;;;;;;;4.38;4.00;;;;;;;;;;5002470;28;20225;-83
2022/04/01 11:41:47;;;;;;;4.53;3.95;;;;;;;;;;4998663;28;20204;-84
2022/04/01 11:44:15;;;;;;;4.65;4.25;;;;;;;;;;4997642;28;20295;-81
2022/04/01 11:46:43;;;;;;;4.38;3.97;;;;;;;;;;4995692;28;20205;-85
2022/04/01 11:49:10;;;;;;;4.70;3.78;;;;;;;;;;4994525;28;20224;-84
2022/04/01 11:51:39;;;;;;;4.60;4.10;;;;;;;;;;4995854;28;20658;-82
2022/04/01 11:54:10;;;;;;;5.97;4.05;;;;;;;;;;4994473;28;20211;-82
2022/04/01 11:56:40;;;;;;;3.38;3.17;;;;;;;;;;4991241;28;20205;-84
2022/04/01 11:59:08;;;;;;;4.22;3.33;;;;;;;;;;4991749;28;20221;-85
2022/04/01 12:01:54;;;;;;;3.45;3.17;;;;;;;;;;4993401;28;20246;-84
2022/04/01 12:04:27;;;;;;;4.25;3.40;;;;;;;;;;4993358;28;20205;-83
2022/04/01 12:09:35;;;;;;;4.32;3.92;;;;;;;;;;4993705;28;20208;-85
2022/04/01 12:12:02;;;;;;;4.05;3.75;;;;;;;;;;4994742;28;20200;-84
2022/04/01 12:14:33;;;;;;;3.83;3.47;;;;;;;;;;4995716;28;20197;-82
2022/04/01 12:17:05;;;;;;;3.70;3.30;;;;;;;;;;4995065;28;20244;-82
2022/04/01 12:19:32;;;;;;;4.00;3.70;;;;;;;;;;4990774;28;20577;-85
2022/04/01 12:22:00;;;;;;;3.47;3.15;;;;;;;;;;4991486;28;20211;-82
2022/04/01 12:24:28;;;;;;;3.85;3.33;;;;;;;;;;4993289;28;20197;-81
2022/04/01 12:26:55;;;;;;;3.88;3.58;;;;;;;;;;4992266;28;20212;-81
2022/04/01 12:29:23;;;;;;;4.40;4.00;;;;;;;;;;4994143;28;20279;-85
2022/04/01 12:31:53;;;;;;;4.70;4.20;;;;;;;;;;4994252;28;20609;-79
2022/04/01 12:34:20;;;;;;;5.20;4.18;;;;;;;;;;4994971;28;20287;-80
2022/04/01 12:36:56;;;;;;;4.63;4.20;;;;;;;;;;4997664;28;20225;-84
2022/04/01 12:39:24;;;;;;;3.90;3.58;;;;;;;;;;4994481;28;20310;-83
2022/04/01 12:41:53;;;;;;;4.63;3.70;;;;;;;;;;4992455;28;20201;-82
2022/04/01 12:44:23;;;;;;;4.45;4.00;;;;;;;;;;4993730;28;20284;-82
2022/04/01 12:46:50;;;;;;;5.00;3.97;;;;;;;;;;4995250;28;20201;-82
2022/04/01 12:49:20;;;;;;;4.80;4.07;;;;;;;;;;4994974;28;20224;-83
2022/04/01 12:51:51;;;;;;;6.53;4.00;;;;;;;;;;4994366;28;20200;-84
2022/04/01 12:54:28;;;;;;;4.70;3.75;;;;;;;;;;4995196;28;20200;-84
2022/04/01 12:56:55;;;;;;;4.68;3.88;;;;;;;;;;4994814;28;20200;-82
2022/04/01 12:59:23;;;;;;;5.78;4.00;;;;;;;;;;4994142;28;20316;-80
2022/04/01 13:01:58;;;;;;;3.88;3.55;;;;;;;;;;4994190;28;20534;-84
2022/04/01 13:04:26;;;;;;;4.35;3.95;;;;;;;;;;4989483;28;20204;-83
2022/04/01 13:07:09;;;;;;;5.45;3.70;;;;;;;;;;4990942;28;20213;-84
2022/04/01 13:09:44;;;;;;;11.80;4.93;;;;;;;;;;4991161;28;20753;-82
2022/04/01 13:12:11;;;;;;;6.40;5.13;;;;;;;;;;4992047;28;20685;-82
2022/04/01 13:14:39;;;;;;;3.88;3.53;;;;;;;;;;4991652;28;20201;-79
2022/04/01 13:17:11;;;;;;;4.65;4.20;;;;;;;;;;4991635;28;20211;-78
2022/04/01 13:19:39;;;;;;;4.93;4.50;;;;;;;;;;4975251;28;20232;-80
2022/04/01 13:22:08;;;;;;;4.78;4.00;;;;;;;;;;4974930;28;20201;-78
2022/04/01 13:24:37;;;;;;;5.05;4.10;;;;;;;;;;4978987;28;20287;-82
2022/04/01 13:27:05;;;;;;;5.75;4.18;;;;;;;;;;4988770;28;20204;-79
2022/04/01 13:29:32;;;;;;;4.32;3.90;;;;;;;;;;4988855;28;20216;-81
2022/04/01 13:32:00;;;;;;;6.15;4.00;;;;;;;;;;4990594;28;20255;-82
2022/04/01 13:34:27;;;;;;;7.00;3.75;;;;;;;;;;4991297;28;20255;-81
2022/04/01 13:36:56;;;;;;;4.30;3.90;;;;;;;;;;4991968;28;20560;-86
2022/04/01 13:39:24;;;;;;;9.02;3.50;;;;;;;;;;4991716;28;20231;-82
2022/04/01 13:41:51;;;;;;;4.82;4.32;;;;;;;;;;4991104;28;20204;-85
2022/04/01 13:44:18;;;;;;;5.18;3.60;;;;;;;;;;4989533;28;20212;-81
2022/04/01 13:46:46;;;;;;;4.50;3.78;;;;;;;;;;4989712;28;20192;-79
2022/04/01 13:49:13;;;;;;;3.92;3.53;;;;;;;;;;4991146;28;20229;-82
2022/04/01 13:51:40;;;;;;;4.90;4.40;;;;;;;;;;4991296;28;20200;-81
2022/04/01 13:54:09;;;;;;;4.32;3.65;;;;;;;;;;4991845;28;20205;-79
2022/04/01 13:56:37;;;;;;;7.45;3.95;;;;;;;;;;4990684;28;20196;-81
2022/04/01 13:59:04;;;;;;;4.53;4.13;;;;;;;;;;4990607;28;20221;-82
2022/04/01 14:01:31;;;;;;;4.45;4.00;;;;;;;;;;4993443;28;20311;-80
2022/04/01 14:03:58;;;;;;;4.70;3.70;;;;;;;;;;4993252;28;20403;-80
2022/04/01 14:06:26;;;;;;;5.10;4.50;;;;;;;;;;4989435;28;20201;-80
2022/04/01 14:08:54;;;;;;;5.25;4.55;;;;;;;;;;4989309;28;20690;-79
2022/04/01 14:11:33;;;;;;;3.85;3.55;;;;;;;;;;4990702;28;20685;-82
2022/04/01 14:14:01;;;;;;;4.40;4.00;;;;;;;;;;4990874;28;20679;-80
2022/04/01 14:16:28;;;;;;;8.15;4.55;;;;;;;;;;4991341;28;20200;-81
2022/04/01 14:18:59;;;;;;;4.45;4.05;;;;;;;;;;4991370;28;20589;-83
2022/04/01 14:21:43;;;;;;;5.20;4.70;;;;;;;;;;4991504;28;20231;-81
2022/04/01 14:24:10;;;;;;;4.70;4.30;;;;;;;;;;4992901;28;20197;-80
2022/04/01 14:26:38;;;;;;;7.38;4.57;;;;;;;;;;4995272;28;20662;-82
2022/04/01 14:31:58;;;;;;;5.35;4.82;;;;;;;;;;4993169;28;20657;-80
2022/04/01 14:34:26;;;;;;;6.20;5.57;;;;;;;;;;4995194;28;20203;-79
2022/04/01 14:36:53;;;;;;;6.22;5.63;;;;;;;;;;4995159;28;20204;-79
2022/04/01 14:39:21;;;;;;;5.93;5.35;;;;;;;;;;4995439;28;20224;-80
2022/04/01 14:41:49;;;;;;;6.40;5.00;;;;;;;;;;4995309;28;20217;-83
2022/04/01 14:44:24;;;;;;;6.22;5.40;;;;;;;;;;4983938;28;20205;-83
2022/04/01 14:46:51;;;;;;;8.10;6.10;;;;;;;;;;4977215;28;20208;-81
2022/04/01 14:49:23;;;;;;;8.45;6.40;;;;;;;;;;4975962;28;20219;-83
2022/04/01 14:51:51;;;;;;;6.45;5.50;;;;;;;;;;4992042;28;20255;-78
2022/04/01 14:54:18;;;;;;;6.25;5.65;;;;;;;;;;4991834;28;20199;-82
2022/04/01 14:56:46;;;;;;;8.43;6.20;;;;;;;;;;4994302;28;20196;-87
2022/04/01 14:59:14;;;;;;;7.63;6.50;;;;;;;;;;4994506;28;20590;-82
2022/04/01 15:01:42;;;;;;;7.45;6.75;;;;;;;;;;4994587;28;20661;-84
2022/04/01 15:04:10;;;;;;;7.32;6.35;;;;;;;;;;4994767;28;20294;-82
2022/04/01 15:06:48;;;;;;;7.13;6.43;;;;;;;;;;4994830;28;20200;-86